sensor_id;sensor_type;location;lat;lon;timestamp;P1;durP1;ratioP1;P2;durP2;ratioP2
11151;SDS011;5630;49.342;10.802;2022-07-29T00:00:35;5.40;;;3.03;;
11151;SDS011;5630;49.342;10.802;2022-07-29T00:03:01;3.47;;;2.80;;
11151;SDS011;5630;49.342;10.802;2022-07-29T00:05:27;5.70;;;2.90;;
11151;SDS011;5630;49.342;10.802;2022-07-29T00:07:53;3.63;;;2.83;;
11151;SDS011;5630;49.342;10.802;2022-07-29T00:10:19;4.33;;;3.10;;
11151;SDS011;5630;49.342;10.802;2022-07-29T00:12:45;5.63;;;2.90;;
11151;SDS011;5630;49.342;10.802;2022-07-29T00:15:10;8.00;;;3.10;;
11151;SDS011;5630;49.342;10.802;2022-07-29T00:17:36;7.73;;;3.03;;
11151;SDS011;5630;49.342;10.802;2022-07-29T00:20:02;4.47;;;3.00;;
11151;SDS011;5630;49.342;10.802;2022-07-29T00:22:28;8.90;;;3.23;;
11151;SDS011;5630;49.342;10.802;2022-07-29T00:24:54;3.20;;;2.70;;
11151;SDS011;5630;49.342;10.802;2022-07-29T00:27:19;6.83;;;2.90;;
11151;SDS011;5630;49.342;10.802;2022-07-29T00:29:45;3.33;;;2.90;;
11151;SDS011;5630;49.342;10.802;2022-07-29T00:32:10;5.77;;;3.03;;
11151;SDS011;5630;49.342;10.802;2022-07-29T00:34:36;8.40;;;2.77;;
11151;SDS011;5630;49.342;10.802;2022-07-29T00:37:20;4.00;;;2.50;;
11151;SDS011;5630;49.342;10.802;2022-07-29T00:39:46;4.30;;;2.40;;
11151;SDS011;5630;49.342;10.802;2022-07-29T00:42:12;4.30;;;2.40;;
11151;SDS011;5630;49.342;10.802;2022-07-29T00:44:38;3.80;;;2.57;;
11151;SDS011;5630;49.342;10.802;2022-07-29T00:47:05;4.93;;;2.70;;
11151;SDS011;5630;49.342;10.802;2022-07-29T00:49:32;4.43;;;2.77;;
11151;SDS011;5630;49.342;10.802;2022-07-29T00:52:00;4.50;;;2.87;;
11151;SDS011;5630;49.342;10.802;2022-07-29T00:54:27;3.43;;;2.87;;
11151;SDS011;5630;49.342;10.802;2022-07-29T00:56:53;3.23;;;2.50;;
11151;SDS011;5630;49.342;10.802;2022-07-29T00:59:21;7.53;;;2.80;;
11151;SDS011;5630;49.342;10.802;2022-07-29T01:01:46;7.13;;;2.83;;
11151;SDS011;5630;49.342;10.802;2022-07-29T01:04:12;4.73;;;2.57;;
11151;SDS011;5630;49.342;10.802;2022-07-29T01:06:37;3.40;;;2.40;;
11151;SDS011;5630;49.342;10.802;2022-07-29T01:09:03;3.13;;;2.57;;
11151;SDS011;5630;49.342;10.802;2022-07-29T01:11:29;3.33;;;2.50;;
11151;SDS011;5630;49.342;10.802;2022-07-29T01:13:55;4.90;;;2.50;;
11151;SDS011;5630;49.342;10.802;2022-07-29T01:16:22;3.00;;;2.30;;
11151;SDS011;5630;49.342;10.802;2022-07-29T01:18:53;3.97;;;2.87;;
11151;SDS011;5630;49.342;10.802;2022-07-29T01:24:44;5.40;;;3.10;;
11151;SDS011;5630;49.342;10.802;2022-07-29T01:27:54;5.77;;;2.93;;
11151;SDS011;5630;49.342;10.802;2022-07-29T01:30:35;4.00;;;2.70;;
11151;SDS011;5630;49.342;10.802;2022-07-29T01:33:06;4.17;;;2.70;;
11151;SDS011;5630;49.342;10.802;2022-07-29T01:35:43;3.47;;;2.83;;
11151;SDS011;5630;49.342;10.802;2022-07-29T01:38:12;4.07;;;2.97;;
11151;SDS011;5630;49.342;10.802;2022-07-29T01:40:43;5.53;;;2.93;;
11151;SDS011;5630;49.342;10.802;2022-07-29T01:43:13;5.67;;;3.20;;
11151;SDS011;5630;49.342;10.802;2022-07-29T01:48:12;5.03;;;2.93;;
11151;SDS011;5630;49.342;10.802;2022-07-29T01:50:52;3.27;;;2.87;;
11151;SDS011;5630;49.342;10.802;2022-07-29T01:53:31;3.80;;;2.80;;
11151;SDS011;5630;49.342;10.802;2022-07-29T01:56:18;4.83;;;3.07;;
11151;SDS011;5630;49.342;10.802;2022-07-29T01:58:46;5.77;;;3.20;;
11151;SDS011;5630;49.342;10.802;2022-07-29T02:01:14;5.33;;;3.03;;
11151;SDS011;5630;49.342;10.802;2022-07-29T02:03:42;6.03;;;3.60;;
11151;SDS011;5630;49.342;10.802;2022-07-29T02:06:10;3.40;;;3.07;;
11151;SDS011;5630;49.342;10.802;2022-07-29T02:08:37;6.17;;;3.20;;
11151;SDS011;5630;49.342;10.802;2022-07-29T02:11:04;6.33;;;3.53;;
11151;SDS011;5630;49.342;10.802;2022-07-29T02:13:31;4.33;;;3.37;;
11151;SDS011;5630;49.342;10.802;2022-07-29T02:16:00;3.87;;;3.23;;
11151;SDS011;5630;49.342;10.802;2022-07-29T02:18:29;4.53;;;3.33;;
11151;SDS011;5630;49.342;10.802;2022-07-29T02:20:55;5.73;;;3.50;;
11151;SDS011;5630;49.342;10.802;2022-07-29T02:23:23;3.53;;;3.10;;
11151;SDS011;5630;49.342;10.802;2022-07-29T02:25:50;5.23;;;3.27;;
11151;SDS011;5630;49.342;10.802;2022-07-29T02:28:19;3.80;;;3.20;;
11151;SDS011;5630;49.342;10.802;2022-07-29T02:30:45;5.83;;;3.30;;
11151;SDS011;5630;49.342;10.802;2022-07-29T02:33:13;6.00;;;3.23;;
11151;SDS011;5630;49.342;10.802;2022-07-29T02:35:40;6.03;;;3.57;;
11151;SDS011;5630;49.342;10.802;2022-07-29T02:38:09;4.23;;;3.27;;
11151;SDS011;5630;49.342;10.802;2022-07-29T02:40:58;6.23;;;3.40;;
11151;SDS011;5630;49.342;10.802;2022-07-29T02:43:25;4.13;;;3.20;;
11151;SDS011;5630;49.342;10.802;2022-07-29T02:45:52;4.97;;;3.17;;
11151;SDS011;5630;49.342;10.802;2022-07-29T02:48:20;6.63;;;3.27;;
11151;SDS011;5630;49.342;10.802;2022-07-29T02:50:54;5.50;;;3.30;;
11151;SDS011;5630;49.342;10.802;2022-07-29T02:53:26;4.43;;;3.23;;
11151;SDS011;5630;49.342;10.802;2022-07-29T02:55:57;3.87;;;3.40;;
11151;SDS011;5630;49.342;10.802;2022-07-29T02:58:27;4.80;;;3.20;;
11151;SDS011;5630;49.342;10.802;2022-07-29T03:00:56;4.23;;;2.97;;
11151;SDS011;5630;49.342;10.802;2022-07-29T03:03:24;3.53;;;3.13;;
11151;SDS011;5630;49.342;10.802;2022-07-29T03:05:56;4.50;;;3.27;;
11151;SDS011;5630;49.342;10.802;2022-07-29T03:08:24;3.40;;;2.77;;
11151;SDS011;5630;49.342;10.802;2022-07-29T03:10:51;4.47;;;3.57;;
11151;SDS011;5630;49.342;10.802;2022-07-29T03:13:18;8.70;;;3.70;;
11151;SDS011;5630;49.342;10.802;2022-07-29T03:15:44;6.43;;;3.30;;
11151;SDS011;5630;49.342;10.802;2022-07-29T03:18:10;8.23;;;3.33;;
11151;SDS011;5630;49.342;10.802;2022-07-29T03:20:36;7.03;;;3.37;;
11151;SDS011;5630;49.342;10.802;2022-07-29T03:23:03;6.27;;;3.90;;
11151;SDS011;5630;49.342;10.802;2022-07-29T03:25:29;4.37;;;3.47;;
11151;SDS011;5630;49.342;10.802;2022-07-29T03:27:55;5.57;;;3.70;;
11151;SDS011;5630;49.342;10.802;2022-07-29T03:30:21;7.83;;;3.73;;
11151;SDS011;5630;49.342;10.802;2022-07-29T03:32:47;5.90;;;3.77;;
11151;SDS011;5630;49.342;10.802;2022-07-29T03:35:14;5.13;;;3.97;;
11151;SDS011;5630;49.342;10.802;2022-07-29T03:37:41;5.73;;;3.60;;
11151;SDS011;5630;49.342;10.802;2022-07-29T03:40:08;6.90;;;3.70;;
11151;SDS011;5630;49.342;10.802;2022-07-29T03:42:36;6.43;;;3.60;;
11151;SDS011;5630;49.342;10.802;2022-07-29T03:45:09;7.13;;;3.57;;
11151;SDS011;5630;49.342;10.802;2022-07-29T03:47:39;4.17;;;3.60;;
11151;SDS011;5630;49.342;10.802;2022-07-29T03:50:08;6.00;;;3.60;;
11151;SDS011;5630;49.342;10.802;2022-07-29T03:52:38;6.80;;;3.80;;
11151;SDS011;5630;49.342;10.802;2022-07-29T03:55:04;6.33;;;3.93;;
11151;SDS011;5630;49.342;10.802;2022-07-29T03:57:30;3.87;;;3.10;;
11151;SDS011;5630;49.342;10.802;2022-07-29T03:59:58;4.70;;;4.00;;
11151;SDS011;5630;49.342;10.802;2022-07-29T04:02:25;8.67;;;3.93;;
11151;SDS011;5630;49.342;10.802;2022-07-29T04:04:51;6.03;;;4.43;;
11151;SDS011;5630;49.342;10.802;2022-07-29T04:07:17;6.30;;;4.53;;
11151;SDS011;5630;49.342;10.802;2022-07-29T04:09:43;9.90;;;4.60;;
11151;SDS011;5630;49.342;10.802;2022-07-29T04:12:09;5.70;;;4.00;;
11151;SDS011;5630;49.342;10.802;2022-07-29T04:14:34;5.90;;;4.07;;
11151;SDS011;5630;49.342;10.802;2022-07-29T04:17:01;6.90;;;4.33;;
11151;SDS011;5630;49.342;10.802;2022-07-29T04:19:28;5.50;;;4.17;;
11151;SDS011;5630;49.342;10.802;2022-07-29T04:21:53;7.03;;;4.00;;
11151;SDS011;5630;49.342;10.802;2022-07-29T04:24:19;5.67;;;4.30;;
11151;SDS011;5630;49.342;10.802;2022-07-29T04:26:45;8.67;;;3.90;;
11151;SDS011;5630;49.342;10.802;2022-07-29T04:29:12;5.40;;;4.30;;
11151;SDS011;5630;49.342;10.802;2022-07-29T04:31:39;5.87;;;4.23;;
11151;SDS011;5630;49.342;10.802;2022-07-29T04:34:05;6.00;;;4.20;;
11151;SDS011;5630;49.342;10.802;2022-07-29T04:36:30;4.97;;;3.60;;
11151;SDS011;5630;49.342;10.802;2022-07-29T04:38:56;4.67;;;3.53;;
11151;SDS011;5630;49.342;10.802;2022-07-29T04:41:21;6.10;;;4.00;;
11151;SDS011;5630;49.342;10.802;2022-07-29T04:43:47;9.50;;;3.87;;
11151;SDS011;5630;49.342;10.802;2022-07-29T04:46:13;5.47;;;3.70;;
11151;SDS011;5630;49.342;10.802;2022-07-29T04:48:38;9.77;;;4.07;;
11151;SDS011;5630;49.342;10.802;2022-07-29T04:51:04;4.90;;;3.43;;
11151;SDS011;5630;49.342;10.802;2022-07-29T04:53:29;3.90;;;3.43;;
11151;SDS011;5630;49.342;10.802;2022-07-29T04:55:55;6.67;;;3.90;;
11151;SDS011;5630;49.342;10.802;2022-07-29T04:58:20;4.30;;;3.90;;
11151;SDS011;5630;49.342;10.802;2022-07-29T05:00:48;7.53;;;4.07;;
11151;SDS011;5630;49.342;10.802;2022-07-29T05:03:14;8.33;;;4.40;;
11151;SDS011;5630;49.342;10.802;2022-07-29T05:05:39;5.97;;;3.50;;
11151;SDS011;5630;49.342;10.802;2022-07-29T05:08:05;6.33;;;3.40;;
11151;SDS011;5630;49.342;10.802;2022-07-29T05:10:31;8.70;;;3.50;;
11151;SDS011;5630;49.342;10.802;2022-07-29T05:12:57;4.50;;;3.50;;
11151;SDS011;5630;49.342;10.802;2022-07-29T05:15:23;6.10;;;4.03;;
11151;SDS011;5630;49.342;10.802;2022-07-29T05:17:48;5.00;;;3.27;;
11151;SDS011;5630;49.342;10.802;2022-07-29T05:20:14;4.77;;;3.70;;
11151;SDS011;5630;49.342;10.802;2022-07-29T05:22:40;4.47;;;3.30;;
11151;SDS011;5630;49.342;10.802;2022-07-29T05:25:05;6.50;;;3.80;;
11151;SDS011;5630;49.342;10.802;2022-07-29T05:27:31;4.70;;;3.60;;
11151;SDS011;5630;49.342;10.802;2022-07-29T05:29:57;6.10;;;3.50;;
11151;SDS011;5630;49.342;10.802;2022-07-29T05:32:22;5.27;;;3.10;;
11151;SDS011;5630;49.342;10.802;2022-07-29T05:34:48;7.43;;;3.87;;
11151;SDS011;5630;49.342;10.802;2022-07-29T05:37:14;7.00;;;3.50;;
11151;SDS011;5630;49.342;10.802;2022-07-29T05:39:40;9.63;;;3.77;;
11151;SDS011;5630;49.342;10.802;2022-07-29T05:42:11;7.47;;;3.37;;
11151;SDS011;5630;49.342;10.802;2022-07-29T05:44:37;7.20;;;3.50;;
11151;SDS011;5630;49.342;10.802;2022-07-29T05:47:04;6.47;;;3.30;;
11151;SDS011;5630;49.342;10.802;2022-07-29T05:49:30;11.27;;;3.70;;
11151;SDS011;5630;49.342;10.802;2022-07-29T05:51:55;5.17;;;3.10;;
11151;SDS011;5630;49.342;10.802;2022-07-29T05:54:21;6.00;;;3.37;;
11151;SDS011;5630;49.342;10.802;2022-07-29T05:56:47;6.80;;;3.43;;
11151;SDS011;5630;49.342;10.802;2022-07-29T05:59:12;6.27;;;3.17;;
11151;SDS011;5630;49.342;10.802;2022-07-29T06:01:38;3.40;;;3.10;;
11151;SDS011;5630;49.342;10.802;2022-07-29T06:04:04;5.90;;;2.60;;
11151;SDS011;5630;49.342;10.802;2022-07-29T06:06:31;2.70;;;2.50;;
11151;SDS011;5630;49.342;10.802;2022-07-29T06:08:58;4.40;;;3.27;;
11151;SDS011;5630;49.342;10.802;2022-07-29T06:11:24;4.90;;;3.13;;
11151;SDS011;5630;49.342;10.802;2022-07-29T06:13:49;5.23;;;3.40;;
11151;SDS011;5630;49.342;10.802;2022-07-29T06:16:15;4.10;;;2.80;;
11151;SDS011;5630;49.342;10.802;2022-07-29T06:18:40;5.43;;;4.03;;
11151;SDS011;5630;49.342;10.802;2022-07-29T06:21:09;9.63;;;3.83;;
11151;SDS011;5630;49.342;10.802;2022-07-29T06:23:35;4.63;;;3.77;;
11151;SDS011;5630;49.342;10.802;2022-07-29T06:26:02;6.17;;;3.63;;
11151;SDS011;5630;49.342;10.802;2022-07-29T06:28:28;5.07;;;3.27;;
11151;SDS011;5630;49.342;10.802;2022-07-29T06:30:53;4.37;;;3.30;;
11151;SDS011;5630;49.342;10.802;2022-07-29T06:33:19;4.23;;;3.03;;
11151;SDS011;5630;49.342;10.802;2022-07-29T06:35:44;6.03;;;3.30;;
11151;SDS011;5630;49.342;10.802;2022-07-29T06:38:12;4.57;;;2.90;;
11151;SDS011;5630;49.342;10.802;2022-07-29T06:40:40;5.70;;;3.40;;
11151;SDS011;5630;49.342;10.802;2022-07-29T06:43:29;7.33;;;3.60;;
11151;SDS011;5630;49.342;10.802;2022-07-29T06:45:59;6.87;;;3.27;;
11151;SDS011;5630;49.342;10.802;2022-07-29T06:48:26;8.00;;;3.53;;
11151;SDS011;5630;49.342;10.802;2022-07-29T06:50:52;3.63;;;2.83;;
11151;SDS011;5630;49.342;10.802;2022-07-29T06:53:17;4.07;;;3.13;;
11151;SDS011;5630;49.342;10.802;2022-07-29T06:55:43;3.53;;;3.10;;
11151;SDS011;5630;49.342;10.802;2022-07-29T06:58:09;6.93;;;3.23;;
11151;SDS011;5630;49.342;10.802;2022-07-29T07:00:35;5.57;;;3.07;;
11151;SDS011;5630;49.342;10.802;2022-07-29T07:03:01;7.30;;;3.00;;
11151;SDS011;5630;49.342;10.802;2022-07-29T07:05:27;6.20;;;3.00;;
11151;SDS011;5630;49.342;10.802;2022-07-29T07:07:52;5.87;;;3.03;;
11151;SDS011;5630;49.342;10.802;2022-07-29T07:10:18;8.20;;;3.20;;
11151;SDS011;5630;49.342;10.802;2022-07-29T07:12:43;6.80;;;3.10;;
11151;SDS011;5630;49.342;10.802;2022-07-29T07:15:09;5.80;;;3.23;;
11151;SDS011;5630;49.342;10.802;2022-07-29T07:17:35;6.07;;;3.23;;
11151;SDS011;5630;49.342;10.802;2022-07-29T07:20:00;4.53;;;2.70;;
11151;SDS011;5630;49.342;10.802;2022-07-29T07:22:26;4.50;;;2.70;;
11151;SDS011;5630;49.342;10.802;2022-07-29T07:24:51;3.40;;;2.43;;
11151;SDS011;5630;49.342;10.802;2022-07-29T07:27:17;2.60;;;2.40;;
11151;SDS011;5630;49.342;10.802;2022-07-29T07:29:42;2.93;;;2.30;;
11151;SDS011;5630;49.342;10.802;2022-07-29T07:32:08;3.23;;;2.30;;
11151;SDS011;5630;49.342;10.802;2022-07-29T07:34:34;4.30;;;2.30;;
11151;SDS011;5630;49.342;10.802;2022-07-29T07:36:59;3.30;;;2.33;;
11151;SDS011;5630;49.342;10.802;2022-07-29T07:39:25;3.87;;;2.27;;
11151;SDS011;5630;49.342;10.802;2022-07-29T07:41:51;2.20;;;2.00;;
11151;SDS011;5630;49.342;10.802;2022-07-29T07:44:17;2.40;;;2.20;;
11151;SDS011;5630;49.342;10.802;2022-07-29T07:46:42;3.47;;;2.50;;
11151;SDS011;5630;49.342;10.802;2022-07-29T07:49:09;2.70;;;2.47;;
11151;SDS011;5630;49.342;10.802;2022-07-29T07:51:35;4.43;;;2.40;;
11151;SDS011;5630;49.342;10.802;2022-07-29T07:54:01;2.90;;;2.50;;
11151;SDS011;5630;49.342;10.802;2022-07-29T07:56:26;5.70;;;2.37;;
11151;SDS011;5630;49.342;10.802;2022-07-29T07:58:52;4.00;;;2.63;;
11151;SDS011;5630;49.342;10.802;2022-07-29T08:01:18;3.37;;;2.47;;
11151;SDS011;5630;49.342;10.802;2022-07-29T08:03:46;2.63;;;2.43;;
11151;SDS011;5630;49.342;10.802;2022-07-29T08:06:11;4.47;;;2.80;;
11151;SDS011;5630;49.342;10.802;2022-07-29T08:08:37;2.83;;;2.27;;
11151;SDS011;5630;49.342;10.802;2022-07-29T08:11:03;3.20;;;2.90;;
11151;SDS011;5630;49.342;10.802;2022-07-29T08:13:28;3.57;;;2.77;;
11151;SDS011;5630;49.342;10.802;2022-07-29T08:15:55;4.73;;;2.90;;
11151;SDS011;5630;49.342;10.802;2022-07-29T08:18:23;3.23;;;2.90;;
11151;SDS011;5630;49.342;10.802;2022-07-29T08:20:49;4.83;;;2.57;;
11151;SDS011;5630;49.342;10.802;2022-07-29T08:23:15;2.63;;;2.43;;
11151;SDS011;5630;49.342;10.802;2022-07-29T08:25:40;2.90;;;2.37;;
11151;SDS011;5630;49.342;10.802;2022-07-29T08:28:06;4.93;;;2.70;;
11151;SDS011;5630;49.342;10.802;2022-07-29T08:30:33;3.57;;;2.40;;
11151;SDS011;5630;49.342;10.802;2022-07-29T08:33:00;2.33;;;2.00;;
11151;SDS011;5630;49.342;10.802;2022-07-29T08:35:25;4.90;;;2.00;;
11151;SDS011;5630;49.342;10.802;2022-07-29T08:37:51;2.07;;;1.60;;
11151;SDS011;5630;49.342;10.802;2022-07-29T08:40:19;3.80;;;1.80;;
11151;SDS011;5630;49.342;10.802;2022-07-29T08:42:45;2.27;;;1.90;;
11151;SDS011;5630;49.342;10.802;2022-07-29T08:45:11;1.83;;;1.70;;
11151;SDS011;5630;49.342;10.802;2022-07-29T08:47:40;2.53;;;1.80;;
11151;SDS011;5630;49.342;10.802;2022-07-29T08:50:07;2.53;;;2.00;;
11151;SDS011;5630;49.342;10.802;2022-07-29T08:52:35;2.27;;;2.07;;
11151;SDS011;5630;49.342;10.802;2022-07-29T08:55:02;2.10;;;1.90;;
11151;SDS011;5630;49.342;10.802;2022-07-29T08:57:29;2.27;;;2.00;;
11151;SDS011;5630;49.342;10.802;2022-07-29T08:59:55;4.77;;;2.10;;
11151;SDS011;5630;49.342;10.802;2022-07-29T09:02:24;2.70;;;1.93;;
11151;SDS011;5630;49.342;10.802;2022-07-29T09:04:54;2.67;;;2.33;;
11151;SDS011;5630;49.342;10.802;2022-07-29T09:07:22;4.80;;;2.10;;
11151;SDS011;5630;49.342;10.802;2022-07-29T09:09:48;2.03;;;1.93;;
11151;SDS011;5630;49.342;10.802;2022-07-29T09:12:13;3.90;;;1.97;;
11151;SDS011;5630;49.342;10.802;2022-07-29T09:14:40;1.93;;;1.73;;
11151;SDS011;5630;49.342;10.802;2022-07-29T09:17:06;3.13;;;1.87;;
11151;SDS011;5630;49.342;10.802;2022-07-29T09:19:34;2.70;;;1.73;;
11151;SDS011;5630;49.342;10.802;2022-07-29T09:22:03;2.17;;;1.90;;
11151;SDS011;5630;49.342;10.802;2022-07-29T09:24:37;1.80;;;1.63;;
11151;SDS011;5630;49.342;10.802;2022-07-29T09:29:57;1.90;;;1.80;;
11151;SDS011;5630;49.342;10.802;2022-07-29T09:32:30;2.00;;;1.80;;
11151;SDS011;5630;49.342;10.802;2022-07-29T09:35:16;2.17;;;1.80;;
11151;SDS011;5630;49.342;10.802;2022-07-29T09:37:44;2.00;;;1.63;;
11151;SDS011;5630;49.342;10.802;2022-07-29T09:40:11;2.27;;;1.87;;
11151;SDS011;5630;49.342;10.802;2022-07-29T09:42:41;3.30;;;2.30;;
11151;SDS011;5630;49.342;10.802;2022-07-29T09:45:07;1.93;;;1.63;;
11151;SDS011;5630;49.342;10.802;2022-07-29T09:47:43;3.43;;;1.97;;
11151;SDS011;5630;49.342;10.802;2022-07-29T09:50:14;2.43;;;2.00;;
11151;SDS011;5630;49.342;10.802;2022-07-29T09:52:44;2.60;;;1.77;;
11151;SDS011;5630;49.342;10.802;2022-07-29T09:55:11;3.30;;;1.93;;
11151;SDS011;5630;49.342;10.802;2022-07-29T09:57:37;3.43;;;1.70;;
11151;SDS011;5630;49.342;10.802;2022-07-29T10:02:34;4.50;;;1.70;;
11151;SDS011;5630;49.342;10.802;2022-07-29T10:05:02;3.43;;;1.70;;
11151;SDS011;5630;49.342;10.802;2022-07-29T10:07:45;1.93;;;1.73;;
11151;SDS011;5630;49.342;10.802;2022-07-29T10:10:23;1.90;;;1.70;;
11151;SDS011;5630;49.342;10.802;2022-07-29T10:12:51;2.13;;;1.93;;
11151;SDS011;5630;49.342;10.802;2022-07-29T10:15:28;3.97;;;1.90;;
11151;SDS011;5630;49.342;10.802;2022-07-29T10:17:56;2.43;;;1.57;;
11151;SDS011;5630;49.342;10.802;2022-07-29T10:20:23;2.83;;;1.77;;
11151;SDS011;5630;49.342;10.802;2022-07-29T10:22:50;1.70;;;1.60;;
11151;SDS011;5630;49.342;10.802;2022-07-29T10:25:16;1.70;;;1.60;;
11151;SDS011;5630;49.342;10.802;2022-07-29T10:27:43;2.10;;;1.77;;
11151;SDS011;5630;49.342;10.802;2022-07-29T10:30:10;2.53;;;1.80;;
11151;SDS011;5630;49.342;10.802;2022-07-29T10:38:34;2.00;;;1.80;;
11151;SDS011;5630;49.342;10.802;2022-07-29T10:41:21;2.67;;;1.73;;
11151;SDS011;5630;49.342;10.802;2022-07-29T10:46:37;2.40;;;1.80;;
11151;SDS011;5630;49.342;10.802;2022-07-29T10:49:04;1.87;;;1.73;;
11151;SDS011;5630;49.342;10.802;2022-07-29T10:59:46;2.87;;;1.80;;
11151;SDS011;5630;49.342;10.802;2022-07-29T11:07:20;2.23;;;1.83;;
11151;SDS011;5630;49.342;10.802;2022-07-29T11:15:10;3.37;;;1.73;;
11151;SDS011;5630;49.342;10.802;2022-07-29T11:34:24;5.57;;;2.03;;
11151;SDS011;5630;49.342;10.802;2022-07-29T11:39:40;3.77;;;1.97;;
11151;SDS011;5630;49.342;10.802;2022-07-29T11:44:54;2.73;;;2.10;;
11151;SDS011;5630;49.342;10.802;2022-07-29T11:47:39;5.50;;;2.07;;
11151;SDS011;5630;49.342;10.802;2022-07-29T11:50:13;2.30;;;2.10;;
11151;SDS011;5630;49.342;10.802;2022-07-29T11:52:44;3.10;;;2.00;;
11151;SDS011;5630;49.342;10.802;2022-07-29T11:55:15;3.67;;;2.20;;
11151;SDS011;5630;49.342;10.802;2022-07-29T11:57:46;3.63;;;2.00;;
11151;SDS011;5630;49.342;10.802;2022-07-29T12:00:16;2.20;;;2.00;;
11151;SDS011;5630;49.342;10.802;2022-07-29T12:02:57;2.80;;;2.10;;
11151;SDS011;5630;49.342;10.802;2022-07-29T12:05:39;3.80;;;2.00;;
11151;SDS011;5630;49.342;10.802;2022-07-29T12:08:16;4.37;;;2.07;;
11151;SDS011;5630;49.342;10.802;2022-07-29T12:10:47;6.10;;;2.10;;
11151;SDS011;5630;49.342;10.802;2022-07-29T12:13:14;3.73;;;2.10;;
11151;SDS011;5630;49.342;10.802;2022-07-29T12:15:41;5.23;;;2.00;;
11151;SDS011;5630;49.342;10.802;2022-07-29T12:18:19;6.40;;;2.30;;
11151;SDS011;5630;49.342;10.802;2022-07-29T12:20:46;7.40;;;2.30;;
11151;SDS011;5630;49.342;10.802;2022-07-29T12:23:13;4.57;;;2.20;;
11151;SDS011;5630;49.342;10.802;2022-07-29T12:25:40;3.83;;;1.90;;
11151;SDS011;5630;49.342;10.802;2022-07-29T12:28:08;2.93;;;2.30;;
11151;SDS011;5630;49.342;10.802;2022-07-29T12:30:41;5.50;;;2.30;;
11151;SDS011;5630;49.342;10.802;2022-07-29T12:33:12;2.27;;;2.07;;
11151;SDS011;5630;49.342;10.802;2022-07-29T12:35:57;4.50;;;2.53;;
11151;SDS011;5630;49.342;10.802;2022-07-29T12:38:25;3.60;;;2.40;;
11151;SDS011;5630;49.342;10.802;2022-07-29T12:40:51;8.07;;;2.57;;
11151;SDS011;5630;49.342;10.802;2022-07-29T12:43:18;2.67;;;2.40;;
11151;SDS011;5630;49.342;10.802;2022-07-29T12:45:46;4.33;;;2.40;;
11151;SDS011;5630;49.342;10.802;2022-07-29T12:48:12;8.93;;;2.80;;
11151;SDS011;5630;49.342;10.802;2022-07-29T12:50:52;5.17;;;2.57;;
11151;SDS011;5630;49.342;10.802;2022-07-29T12:53:19;4.80;;;2.70;;
11151;SDS011;5630;49.342;10.802;2022-07-29T12:55:46;5.00;;;2.70;;
11151;SDS011;5630;49.342;10.802;2022-07-29T12:58:25;5.07;;;2.60;;
11151;SDS011;5630;49.342;10.802;2022-07-29T13:01:09;3.27;;;2.53;;
11151;SDS011;5630;49.342;10.802;2022-07-29T13:03:55;2.30;;;2.10;;
11151;SDS011;5630;49.342;10.802;2022-07-29T13:06:42;5.17;;;2.33;;
11151;SDS011;5630;49.342;10.802;2022-07-29T13:14:14;4.03;;;2.47;;
11151;SDS011;5630;49.342;10.802;2022-07-29T13:17:01;2.77;;;2.27;;
11151;SDS011;5630;49.342;10.802;2022-07-29T13:19:32;5.17;;;2.60;;
11151;SDS011;5630;49.342;10.802;2022-07-29T13:22:05;5.20;;;2.30;;
11151;SDS011;5630;49.342;10.802;2022-07-29T13:24:31;7.20;;;2.70;;
11151;SDS011;5630;49.342;10.802;2022-07-29T13:26:57;7.07;;;2.60;;
11151;SDS011;5630;49.342;10.802;2022-07-29T13:29:22;4.30;;;2.50;;
11151;SDS011;5630;49.342;10.802;2022-07-29T13:31:48;5.50;;;2.77;;
11151;SDS011;5630;49.342;10.802;2022-07-29T13:34:14;9.67;;;3.27;;
11151;SDS011;5630;49.342;10.802;2022-07-29T13:36:40;10.10;;;3.07;;
11151;SDS011;5630;49.342;10.802;2022-07-29T13:39:05;7.73;;;2.80;;
11151;SDS011;5630;49.342;10.802;2022-07-29T13:41:31;6.70;;;2.83;;
11151;SDS011;5630;49.342;10.802;2022-07-29T13:43:56;6.57;;;2.67;;
11151;SDS011;5630;49.342;10.802;2022-07-29T13:46:22;10.13;;;3.20;;
11151;SDS011;5630;49.342;10.802;2022-07-29T13:48:47;5.63;;;2.90;;
11151;SDS011;5630;49.342;10.802;2022-07-29T13:51:13;7.07;;;2.70;;
11151;SDS011;5630;49.342;10.802;2022-07-29T13:53:38;9.67;;;3.20;;
11151;SDS011;5630;49.342;10.802;2022-07-29T13:56:04;9.97;;;3.40;;
11151;SDS011;5630;49.342;10.802;2022-07-29T13:58:32;5.27;;;2.80;;
11151;SDS011;5630;49.342;10.802;2022-07-29T14:00:59;4.13;;;2.40;;
11151;SDS011;5630;49.342;10.802;2022-07-29T14:03:25;5.90;;;2.80;;
11151;SDS011;5630;49.342;10.802;2022-07-29T14:05:50;6.83;;;3.13;;
11151;SDS011;5630;49.342;10.802;2022-07-29T14:08:16;7.70;;;3.00;;
11151;SDS011;5630;49.342;10.802;2022-07-29T14:10:42;5.33;;;2.57;;
11151;SDS011;5630;49.342;10.802;2022-07-29T14:13:07;5.83;;;2.93;;
11151;SDS011;5630;49.342;10.802;2022-07-29T14:15:33;4.33;;;2.73;;
11151;SDS011;5630;49.342;10.802;2022-07-29T14:17:59;3.90;;;2.90;;
11151;SDS011;5630;49.342;10.802;2022-07-29T14:20:25;2.90;;;2.57;;
11151;SDS011;5630;49.342;10.802;2022-07-29T14:22:53;6.13;;;2.80;;
11151;SDS011;5630;49.342;10.802;2022-07-29T14:25:18;8.10;;;3.33;;
11151;SDS011;5630;49.342;10.802;2022-07-29T14:27:44;5.10;;;2.60;;
11151;SDS011;5630;49.342;10.802;2022-07-29T14:30:10;3.93;;;2.90;;
11151;SDS011;5630;49.342;10.802;2022-07-29T14:32:36;4.83;;;2.70;;
11151;SDS011;5630;49.342;10.802;2022-07-29T14:35:01;4.30;;;2.80;;
11151;SDS011;5630;49.342;10.802;2022-07-29T14:37:27;3.87;;;3.07;;
11151;SDS011;5630;49.342;10.802;2022-07-29T14:39:53;4.07;;;3.07;;
11151;SDS011;5630;49.342;10.802;2022-07-29T14:42:20;3.87;;;2.87;;
11151;SDS011;5630;49.342;10.802;2022-07-29T14:44:46;5.47;;;3.00;;
11151;SDS011;5630;49.342;10.802;2022-07-29T14:47:12;4.47;;;3.13;;
11151;SDS011;5630;49.342;10.802;2022-07-29T14:49:38;3.37;;;2.83;;
11151;SDS011;5630;49.342;10.802;2022-07-29T14:52:03;4.40;;;3.00;;
11151;SDS011;5630;49.342;10.802;2022-07-29T14:54:29;4.20;;;3.30;;
11151;SDS011;5630;49.342;10.802;2022-07-29T14:56:55;3.10;;;2.77;;
11151;SDS011;5630;49.342;10.802;2022-07-29T14:59:21;3.70;;;3.27;;
11151;SDS011;5630;49.342;10.802;2022-07-29T15:01:47;5.60;;;3.37;;
11151;SDS011;5630;49.342;10.802;2022-07-29T15:04:13;4.83;;;2.73;;
11151;SDS011;5630;49.342;10.802;2022-07-29T15:06:38;3.93;;;2.90;;
11151;SDS011;5630;49.342;10.802;2022-07-29T15:09:04;3.93;;;2.70;;
11151;SDS011;5630;49.342;10.802;2022-07-29T15:11:29;3.47;;;2.40;;
11151;SDS011;5630;49.342;10.802;2022-07-29T15:13:55;3.20;;;2.00;;
11151;SDS011;5630;49.342;10.802;2022-07-29T15:16:20;5.13;;;1.77;;
11151;SDS011;5630;49.342;10.802;2022-07-29T15:18:46;2.43;;;1.90;;
11151;SDS011;5630;49.342;10.802;2022-07-29T15:21:12;4.93;;;2.30;;
11151;SDS011;5630;49.342;10.802;2022-07-29T15:23:38;2.83;;;2.10;;
11151;SDS011;5630;49.342;10.802;2022-07-29T15:26:04;2.20;;;1.90;;
11151;SDS011;5630;49.342;10.802;2022-07-29T15:28:29;2.17;;;1.90;;
11151;SDS011;5630;49.342;10.802;2022-07-29T15:30:55;2.10;;;1.57;;
11151;SDS011;5630;49.342;10.802;2022-07-29T15:33:20;3.13;;;1.70;;
11151;SDS011;5630;49.342;10.802;2022-07-29T15:35:46;4.83;;;1.90;;
11151;SDS011;5630;49.342;10.802;2022-07-29T15:38:11;2.90;;;1.77;;
11151;SDS011;5630;49.342;10.802;2022-07-29T15:40:37;1.97;;;1.60;;
11151;SDS011;5630;49.342;10.802;2022-07-29T15:43:06;3.23;;;1.70;;
11151;SDS011;5630;49.342;10.802;2022-07-29T15:45:35;2.20;;;1.80;;
11151;SDS011;5630;49.342;10.802;2022-07-29T15:48:02;1.90;;;1.70;;
11151;SDS011;5630;49.342;10.802;2022-07-29T15:50:29;2.63;;;1.73;;
11151;SDS011;5630;49.342;10.802;2022-07-29T15:52:54;2.20;;;1.70;;
11151;SDS011;5630;49.342;10.802;2022-07-29T15:55:20;3.07;;;2.00;;
11151;SDS011;5630;49.342;10.802;2022-07-29T15:57:45;3.53;;;1.90;;